Terminal Aerodrome Forecast
Issued by NWS

Home | Current Version | Previous Version | Text Only | Print | Product List | Glossary On
Versions: 1 2 3 4 5 6 7 8 9 10 11 12 13 14 15 16 17 18 19 20 21 22
000
FTUS46 KMFR 281152
TAFLMT
TAF
KLMT 281152Z 2812/2912 17015KT P6SM SCT080 OVC150 WS020/22035KT
     FM281600 17012KT P6SM VCSH BKN040 OVC080
     FM282100 20013G22KT P6SM -RA SCT020 BKN035 OVC050
     FM290000 20010KT P6SM -RA BKN035 OVC050
     FM290400 21008KT P6SM -RA SCT020 BKN030 OVC050=

USA.gov is the U.S. government's official web portal to all federal, state and local government web resources and services.